Time;durP1;ratioP1;P1;durP2;ratioP2;P2;SDS_P1;SDS_P2;PMS_P1;PMS_P2;Temp;Humidity;BMP_temperature;BMP_pressure;BME280_temperature;BME280_humidity;BME280_pressure;Samples;Min_cycle;Max_cycle;Signal;HPM_P1;HPM_P2
2021/01/19 00:01:17;;;;;;;18.00;8.52;;;-0.60;99.90;;;;;;5029684;28;20030;-56
2021/01/19 00:03:43;;;;;;;15.30;8.43;;;-0.50;99.90;;;;;;5024855;28;20030;-58
2021/01/19 00:06:09;;;;;;;18.52;7.75;;;-0.60;99.90;;;;;;5032158;28;20025;-55
2021/01/19 00:08:34;;;;;;;15.60;8.00;;;-0.50;99.90;;;;;;5030959;28;20080;-55
2021/01/19 00:11:01;;;;;;;15.40;8.40;;;-0.60;99.90;;;;;;5032228;28;20033;-55
2021/01/19 00:13:27;;;;;;;15.05;8.10;;;-0.50;99.90;;;;;;5029759;28;20065;-58
2021/01/19 00:15:53;;;;;;;16.15;7.38;;;-0.60;99.90;;;;;;5032245;28;20119;-58
2021/01/19 00:18:19;;;;;;;17.90;8.80;;;-0.60;99.90;;;;;;5029502;28;20588;-55
2021/01/19 00:20:45;;;;;;;13.15;7.75;;;-0.60;99.90;;;;;;5032120;28;20492;-57
2021/01/19 00:23:12;;;;;;;16.55;8.02;;;-0.60;99.90;;;;;;5026338;28;20069;-54
2021/01/19 00:25:42;;;;;;;17.27;8.88;;;-0.70;99.90;;;;;;5031654;28;20586;-53
2021/01/19 00:28:09;;;;;;;16.20;8.43;;;-0.60;99.90;;;;;;5025017;28;20176;-56
2021/01/19 00:30:43;;;;;;;16.35;7.75;;;-0.70;99.90;;;;;;5031903;28;20039;-55
2021/01/19 00:33:10;;;;;;;16.50;8.43;;;-0.70;99.90;;;;;;5024170;28;20029;-58
2021/01/19 00:35:37;;;;;;;15.27;7.75;;;-0.70;99.90;;;;;;5032092;28;20053;-55
2021/01/19 00:38:04;;;;;;;17.77;7.35;;;-0.70;99.90;;;;;;5021956;28;20121;-57
2021/01/19 00:40:30;;;;;;;15.43;8.05;;;-0.60;99.90;;;;;;5031825;28;20148;-57
2021/01/19 00:42:57;;;;;;;22.83;6.55;;;-0.70;99.90;;;;;;5018179;28;20053;-57
2021/01/19 00:45:23;;;;;;;16.30;7.15;;;-0.70;99.90;;;;;;5031604;28;20667;-55
2021/01/19 00:47:49;;;;;;;16.58;7.30;;;-0.70;99.90;;;;;;5029133;28;20041;-56
2021/01/19 00:50:14;;;;;;;15.35;7.25;;;-0.70;99.90;;;;;;5028738;28;20040;-56
2021/01/19 00:52:40;;;;;;;15.00;7.43;;;-0.80;99.90;;;;;;5015959;28;20148;-56
2021/01/19 00:55:10;;;;;;;14.48;7.47;;;-0.70;99.90;;;;;;5009052;28;20041;-58
2021/01/19 00:57:36;;;;;;;15.65;6.53;;;-0.80;99.90;;;;;;5007426;28;20391;-57
2021/01/19 01:00:07;;;;;;;17.30;7.50;;;-0.80;99.90;;;;;;5010238;28;20034;-55
2021/01/19 01:02:37;;;;;;;12.88;6.88;;;-0.80;99.90;;;;;;5011481;28;20045;-55
2021/01/19 01:05:07;;;;;;;19.55;8.02;;;-0.70;99.90;;;;;;5026083;28;20037;-54
2021/01/19 01:07:36;;;;;;;17.58;7.40;;;-0.80;99.90;;;;;;5026840;28;20053;-54
2021/01/19 01:10:04;;;;;;;11.45;6.65;;;-0.80;99.90;;;;;;5029837;28;20033;-56
2021/01/19 01:12:30;;;;;;;13.85;7.60;;;-0.80;99.90;;;;;;5028894;28;20211;-53
2021/01/19 01:14:55;;;;;;;16.83;8.20;;;-0.80;99.90;;;;;;5031282;28;20116;-52
2021/01/19 01:17:21;;;;;;;19.70;8.80;;;-0.90;99.90;;;;;;5012884;28;20773;-57
2021/01/19 01:19:47;;;;;;;16.90;8.38;;;-0.90;99.90;;;;;;5011052;28;20060;-58
2021/01/19 01:22:13;;;;;;;14.57;7.65;;;-0.90;99.90;;;;;;5008568;28;20026;-56
2021/01/19 01:24:39;;;;;;;13.95;7.57;;;-0.90;99.90;;;;;;5011269;28;20394;-56
2021/01/19 01:27:04;;;;;;;13.45;7.30;;;-0.90;99.90;;;;;;5017936;28;20026;-56
2021/01/19 01:29:30;;;;;;;15.98;7.32;;;-0.90;99.90;;;;;;5030779;28;20041;-58
2021/01/19 01:31:56;;;;;;;13.02;6.22;;;-0.90;99.90;;;;;;5028674;28;20037;-55
2021/01/19 01:34:22;;;;;;;13.10;6.45;;;-0.90;99.90;;;;;;5031028;28;20071;-58
2021/01/19 01:36:48;;;;;;;17.70;8.15;;;-1.00;99.90;;;;;;5018864;28;20421;-56
2021/01/19 01:39:13;;;;;;;16.70;8.75;;;-1.00;99.90;;;;;;5018914;28;20083;-57
2021/01/19 01:41:39;;;;;;;16.00;7.78;;;-1.10;99.90;;;;;;5016308;28;20079;-56
2021/01/19 01:44:05;;;;;;;14.55;7.65;;;-1.10;99.90;;;;;;5026791;28;20049;-55
2021/01/19 01:46:33;;;;;;;14.02;6.93;;;-1.10;99.90;;;;;;5010762;28;20553;-57
2021/01/19 01:49:01;;;;;;;14.80;7.50;;;-1.00;99.90;;;;;;5028066;28;20033;-54
2021/01/19 01:51:28;;;;;;;13.82;7.70;;;-1.00;99.90;;;;;;5027778;28;20489;-54
2021/01/19 01:53:56;;;;;;;14.55;7.97;;;-1.00;99.90;;;;;;5030388;28;20189;-53
2021/01/19 01:56:22;;;;;;;14.57;7.53;;;-1.00;99.90;;;;;;5028148;28;20073;-55
2021/01/19 01:58:48;;;;;;;19.38;7.85;;;-1.00;99.90;;;;;;5026985;28;20489;-57
2021/01/19 02:01:14;;;;;;;16.00;7.45;;;-1.00;99.90;;;;;;5022084;28;20110;-56
2021/01/19 02:03:40;;;;;;;13.38;6.05;;;-1.00;99.90;;;;;;5029912;28;20037;-54
2021/01/19 02:06:06;;;;;;;11.98;5.97;;;-0.90;99.90;;;;;;5023551;28;20114;-57
2021/01/19 02:08:48;;;;;;;10.60;5.15;;;-0.90;99.90;;;;;;5030096;28;20072;-58
2021/01/19 02:11:28;;;;;;;12.25;6.35;;;-0.90;99.90;;;;;;5022556;28;20052;-56
2021/01/19 02:14:05;;;;;;;12.85;6.38;;;-0.90;99.90;;;;;;5030097;28;20088;-56
2021/01/19 02:16:30;;;;;;;13.65;6.80;;;-0.90;99.90;;;;;;5025164;28;20053;-55
2021/01/19 02:19:12;;;;;;;12.50;6.72;;;-1.00;99.90;;;;;;5029896;28;20041;-56
2021/01/19 02:22:19;;;;;;;13.80;7.57;;;-0.90;99.90;;;;;;5014032;28;20045;-57
2021/01/19 02:25:11;;;;;;;14.75;7.70;;;-1.00;99.90;;;;;;5005655;28;20219;-56
2021/01/19 02:28:02;;;;;;;15.93;7.75;;;-1.10;99.90;;;;;;4990426;28;20402;-53
2021/01/19 02:30:59;;;;;;;15.15;8.60;;;-1.20;99.90;;;;;;5000336;28;20048;-57
2021/01/19 02:33:52;;;;;;;15.65;8.93;;;-1.20;99.90;;;;;;5010031;28;20085;-55
2021/01/19 02:36:57;;;;;;;18.42;8.32;;;-1.30;99.90;;;;;;5009212;28;20576;-57
2021/01/19 02:39:38;;;;;;;17.85;8.55;;;-1.30;99.90;;;;;;5026393;28;20044;-55
2021/01/19 02:42:08;;;;;;;14.30;7.22;;;-1.30;99.90;;;;;;5288796;22;20127;-52
2021/01/19 02:44:38;;;;;;;17.95;8.48;;;-1.30;99.90;;;;;;5059579;28;20037;-55
2021/01/19 02:47:04;;;;;;;16.60;8.02;;;-1.30;99.90;;;;;;5064575;28;20489;-54
2021/01/19 02:49:30;;;;;;;20.90;7.50;;;-1.30;99.90;;;;;;5066229;28;20387;-55
2021/01/19 02:51:58;;;;;;;18.38;8.13;;;-1.30;99.90;;;;;;5067299;28;20032;-55
2021/01/19 02:54:24;;;;;;;15.25;8.35;;;-1.40;99.90;;;;;;5068931;28;20295;-56
2021/01/19 02:56:53;;;;;;;15.43;7.65;;;-1.30;99.90;;;;;;5067987;28;20048;-57
2021/01/19 02:59:21;;;;;;;18.73;8.43;;;-1.30;99.90;;;;;;5068223;28;20119;-59
2021/01/19 03:01:55;;;;;;;15.35;6.95;;;-1.30;99.90;;;;;;5069335;28;20070;-57
2021/01/19 03:04:21;;;;;;;12.80;7.05;;;-1.20;99.90;;;;;;5068175;28;20071;-53
2021/01/19 03:06:49;;;;;;;15.27;7.22;;;-1.20;99.90;;;;;;5066850;28;20033;-56
2021/01/19 03:09:17;;;;;;;19.38;8.05;;;-1.30;99.90;;;;;;5067874;28;20032;-57
2021/01/19 03:11:45;;;;;;;15.15;6.88;;;-1.30;99.90;;;;;;5068850;28;20104;-57
2021/01/19 03:14:12;;;;;;;12.75;7.38;;;-1.20;99.90;;;;;;5068057;28;20032;-58
2021/01/19 03:16:37;;;;;;;13.25;6.65;;;-1.20;99.90;;;;;;5066463;28;20051;-54
2021/01/19 03:19:04;;;;;;;13.57;7.47;;;-1.20;99.90;;;;;;5068705;28;20033;-56
2021/01/19 03:21:30;;;;;;;13.77;6.82;;;-1.20;99.90;;;;;;5067701;28;20143;-57
2021/01/19 03:23:56;;;;;;;14.60;7.15;;;-1.20;99.90;;;;;;5068897;28;20135;-58
2021/01/19 03:26:22;;;;;;;17.40;7.15;;;-1.10;99.90;;;;;;5067618;28;20028;-57
2021/01/19 03:28:47;;;;;;;17.35;6.88;;;-1.10;99.90;;;;;;5068408;28;20429;-58
2021/01/19 03:31:13;;;;;;;15.02;7.38;;;-1.10;99.90;;;;;;5067689;28;20028;-56
2021/01/19 03:33:39;;;;;;;12.98;7.38;;;-1.10;99.90;;;;;;5067876;28;20032;-58
2021/01/19 03:36:05;;;;;;;15.13;7.53;;;-1.10;99.90;;;;;;5049601;28;20032;-60
2021/01/19 03:38:30;;;;;;;13.27;6.63;;;-1.10;99.90;;;;;;5068597;28;20080;-59
2021/01/19 03:40:56;;;;;;;12.80;6.90;;;-1.10;99.90;;;;;;5067499;28;20040;-57
2021/01/19 03:43:22;;;;;;;13.75;6.80;;;-1.10;99.90;;;;;;5068088;28;20057;-52
2021/01/19 03:45:48;;;;;;;15.63;5.95;;;-1.10;99.90;;;;;;5067749;28;20064;-56
2021/01/19 03:48:13;;;;;;;11.50;5.97;;;-1.20;99.90;;;;;;5067240;28;20122;-58
2021/01/19 03:50:39;;;;;;;13.00;6.38;;;-1.20;99.90;;;;;;5067418;28;20033;-56
2021/01/19 03:53:05;;;;;;;13.50;6.10;;;-1.30;99.90;;;;;;5068019;28;20028;-55
2021/01/19 03:55:31;;;;;;;10.65;5.32;;;-1.30;99.90;;;;;;5067528;28;20451;-54
2021/01/19 03:57:57;;;;;;;12.15;5.85;;;-1.30;99.90;;;;;;5066491;28;20040;-56
2021/01/19 04:00:23;;;;;;;11.23;6.55;;;-1.30;99.90;;;;;;5067247;28;20043;-56
2021/01/19 04:02:49;;;;;;;14.88;7.22;;;-1.30;99.90;;;;;;5067548;28;20052;-57
2021/01/19 04:05:15;;;;;;;11.98;6.20;;;-1.30;99.90;;;;;;5068246;28;20036;-54
2021/01/19 04:07:42;;;;;;;16.42;6.88;;;-1.30;99.90;;;;;;5068644;28;20033;-53
2021/01/19 04:10:15;;;;;;;14.93;6.10;;;-1.30;99.90;;;;;;5067421;28;20224;-55
2021/01/19 04:12:42;;;;;;;14.25;6.47;;;-1.30;99.90;;;;;;5068103;28;20040;-52
2021/01/19 04:15:09;;;;;;;12.35;6.18;;;-1.20;99.90;;;;;;5067149;28;20036;-56
2021/01/19 04:17:36;;;;;;;14.55;6.55;;;-1.20;99.90;;;;;;5067897;28;20047;-57
2021/01/19 04:20:02;;;;;;;13.40;7.13;;;-1.20;99.90;;;;;;5067333;28;20032;-56
2021/01/19 04:22:28;;;;;;;14.48;6.95;;;-1.20;99.90;;;;;;5068238;28;20210;-60
2021/01/19 04:24:54;;;;;;;11.23;6.03;;;-1.20;99.90;;;;;;5066960;28;20511;-58
2021/01/19 04:27:20;;;;;;;13.57;7.03;;;-1.20;99.90;;;;;;5068197;28;20115;-59
2021/01/19 04:29:46;;;;;;;13.95;6.43;;;-1.20;99.90;;;;;;5067179;28;20033;-56
2021/01/19 04:32:12;;;;;;;13.40;6.75;;;-1.10;99.90;;;;;;5068259;28;20048;-57
2021/01/19 04:34:38;;;;;;;15.30;6.90;;;-1.10;99.90;;;;;;5067121;28;20607;-54
2021/01/19 04:37:04;;;;;;;17.50;8.07;;;-1.10;99.90;;;;;;5067297;28;20222;-57
2021/01/19 04:39:29;;;;;;;15.85;6.88;;;-1.20;99.90;;;;;;5068250;28;20039;-58
2021/01/19 04:41:56;;;;;;;13.80;6.40;;;-1.20;99.90;;;;;;5066665;28;20028;-56
2021/01/19 04:44:24;;;;;;;14.75;6.70;;;-1.10;99.90;;;;;;5069165;28;20028;-59
2021/01/19 04:46:49;;;;;;;23.65;11.00;;;-1.10;99.90;;;;;;5070548;28;20032;-56
2021/01/19 04:49:17;;;;;;;26.48;12.57;;;-1.20;99.90;;;;;;5071449;28;20044;-57
2021/01/19 04:51:47;;;;;;;24.17;11.95;;;-1.40;99.90;;;;;;5070549;28;20032;-59
2021/01/19 04:54:17;;;;;;;24.33;11.63;;;-1.50;99.90;;;;;;5070434;28;20032;-59
2021/01/19 04:56:50;;;;;;;24.25;10.73;;;-1.50;99.90;;;;;;5070346;28;20036;-59
2021/01/19 04:59:21;;;;;;;21.27;10.55;;;-1.50;99.90;;;;;;5070769;28;20534;-53
2021/01/19 05:01:53;;;;;;;20.35;10.38;;;-1.50;99.90;;;;;;5071499;28;20039;-59
2021/01/19 05:04:30;;;;;;;18.98;9.80;;;-1.60;99.90;;;;;;5070391;28;20079;-58
2021/01/19 05:07:26;;;;;;;19.45;9.30;;;-1.60;99.90;;;;;;5070210;28;20475;-58
2021/01/19 05:10:21;;;;;;;14.85;7.88;;;-1.50;99.90;;;;;;5071054;28;20040;-56
2021/01/19 05:12:59;;;;;;;10.73;5.93;;;-1.30;99.90;;;;;;5070517;28;20396;-59
2021/01/19 05:15:25;;;;;;;11.27;6.50;;;-1.10;99.90;;;;;;5070950;28;20503;-58
2021/01/19 05:17:54;;;;;;;12.98;6.82;;;-1.00;99.90;;;;;;5070025;28;20040;-58
2021/01/19 05:20:21;;;;;;;11.30;6.88;;;-0.90;99.90;;;;;;5070851;28;20115;-57
2021/01/19 05:22:50;;;;;;;14.35;7.10;;;-0.80;99.90;;;;;;5031283;28;20037;-58
2021/01/19 05:25:16;;;;;;;15.48;6.68;;;-0.80;99.90;;;;;;5048825;28;20056;-59
2021/01/19 05:27:42;;;;;;;15.25;7.43;;;-0.80;99.90;;;;;;5066872;28;20085;-56
2021/01/19 05:30:08;;;;;;;12.80;6.78;;;-0.80;99.90;;;;;;5070787;28;20033;-58
2021/01/19 05:32:38;;;;;;;13.20;6.63;;;-0.80;99.90;;;;;;5068858;28;20056;-58
2021/01/19 05:35:19;;;;;;;16.50;7.18;;;-0.70;99.90;;;;;;5069129;28;20055;-58
2021/01/19 05:37:58;;;;;;;17.33;7.00;;;-0.70;99.90;;;;;;5070781;28;20040;-58
2021/01/19 05:40:25;;;;;;;14.50;6.70;;;-0.70;99.90;;;;;;5069899;28;20033;-57
2021/01/19 05:42:52;;;;;;;14.90;7.15;;;-0.70;99.90;;;;;;5070216;28;20048;-57
2021/01/19 05:45:18;;;;;;;15.18;7.63;;;-0.70;99.90;;;;;;5069276;28;20032;-58
2021/01/19 05:47:44;;;;;;;15.30;7.18;;;-0.70;99.90;;;;;;5070881;28;20534;-59
2021/01/19 05:50:11;;;;;;;14.10;6.25;;;-0.60;99.90;;;;;;5069695;28;20115;-59
2021/01/19 05:52:37;;;;;;;12.88;6.53;;;-0.60;99.90;;;;;;5070775;28;20436;-58
2021/01/19 05:55:03;;;;;;;12.98;7.15;;;-0.60;99.90;;;;;;5068032;28;20119;-56
2021/01/19 05:57:29;;;;;;;11.98;6.45;;;-0.50;99.90;;;;;;5052052;28;20400;-58
2021/01/19 05:59:59;;;;;;;11.80;6.10;;;-0.50;99.90;;;;;;5057077;28;20029;-59
2021/01/19 06:02:40;;;;;;;13.88;6.93;;;-0.50;99.90;;;;;;5064526;28;20512;-59
2021/01/19 06:05:16;;;;;;;13.77;6.50;;;-0.50;99.90;;;;;;5070159;28;20029;-59
2021/01/19 06:07:46;;;;;;;17.38;6.85;;;-0.50;99.90;;;;;;5069039;28;20045;-59
2021/01/19 06:10:18;;;;;;;27.33;10.43;;;-0.50;99.90;;;;;;5069796;28;20028;-58
2021/01/19 06:12:43;;;;;;;17.25;8.20;;;-0.40;99.90;;;;;;5055621;28;20106;-57
2021/01/19 06:15:10;;;;;;;13.10;7.47;;;-0.40;99.90;;;;;;5050057;28;20430;-58
2021/01/19 06:17:37;;;;;;;19.15;7.05;;;-0.50;99.90;;;;;;5060868;28;20098;-58
2021/01/19 06:20:05;;;;;;;12.52;7.15;;;-0.50;99.90;;;;;;5067570;28;20127;-59
2021/01/19 06:22:31;;;;;;;13.90;7.55;;;-0.50;99.90;;;;;;5065446;28;20138;-58
2021/01/19 06:25:03;;;;;;;13.50;6.65;;;-0.40;99.90;;;;;;5067861;28;20189;-60
2021/01/19 06:27:31;;;;;;;13.88;7.18;;;-0.40;99.90;;;;;;5069768;28;20032;-58
2021/01/19 06:29:59;;;;;;;17.20;6.97;;;-0.40;99.90;;;;;;5068833;28;20040;-57
2021/01/19 06:32:34;;;;;;;15.23;7.28;;;-0.40;99.90;;;;;;5068441;28;20055;-58
2021/01/19 06:35:17;;;;;;;18.13;8.32;;;-0.30;99.90;;;;;;5067369;28;20035;-57
2021/01/19 06:37:45;;;;;;;19.90;9.07;;;-0.30;99.90;;;;;;5069158;28;20439;-59
2021/01/19 06:40:13;;;;;;;18.23;9.30;;;-0.30;99.90;;;;;;5068951;28;20032;-56
2021/01/19 06:42:40;;;;;;;18.63;8.98;;;-0.30;99.90;;;;;;5069213;28;20127;-60
2021/01/19 06:45:12;;;;;;;20.80;8.93;;;-0.30;99.90;;;;;;5068601;28;20059;-57
2021/01/19 06:47:44;;;;;;;14.70;7.75;;;-0.30;99.90;;;;;;5068094;28;20118;-59
2021/01/19 06:50:10;;;;;;;14.68;7.57;;;-0.40;99.90;;;;;;5053350;28;20028;-56
2021/01/19 06:52:41;;;;;;;12.63;7.68;;;-0.30;99.90;;;;;;5069231;28;20024;-57
2021/01/19 06:55:21;;;;;;;14.70;7.28;;;-0.30;99.90;;;;;;5067922;28;20036;-55
2021/01/19 06:58:01;;;;;;;19.17;7.90;;;-0.30;99.90;;;;;;5064377;28;20064;-57
2021/01/19 07:00:41;;;;;;;17.13;7.53;;;-0.30;99.90;;;;;;5064877;28;20123;-60
2021/01/19 07:03:27;;;;;;;15.60;6.35;;;-0.30;99.90;;;;;;5067517;28;20036;-60
2021/01/19 07:05:55;;;;;;;17.50;7.95;;;-0.20;99.90;;;;;;5054037;28;20066;-59
2021/01/19 07:08:20;;;;;;;16.52;7.45;;;-0.20;99.90;;;;;;5049240;28;20033;-59
2021/01/19 07:11:03;;;;;;;14.98;7.82;;;-0.30;99.90;;;;;;5068941;28;20079;-56
2021/01/19 07:13:38;;;;;;;16.25;8.10;;;-0.30;99.90;;;;;;5060574;28;20041;-60
2021/01/19 07:16:09;;;;;;;14.45;7.20;;;-0.20;99.90;;;;;;5065993;28;20090;-55
2021/01/19 07:18:50;;;;;;;16.67;7.55;;;-0.20;99.90;;;;;;5048963;28;20036;-59
2021/01/19 07:21:20;;;;;;;15.70;7.60;;;-0.20;99.90;;;;;;5067717;28;20024;-57
2021/01/19 07:23:46;;;;;;;15.68;7.80;;;-0.10;99.90;;;;;;5059957;28;20506;-57
2021/01/19 07:26:30;;;;;;;12.02;7.03;;;-0.20;99.90;;;;;;5065896;28;20052;-59
2021/01/19 07:28:56;;;;;;;18.63;9.05;;;-0.20;99.90;;;;;;5066920;28;20452;-60
2021/01/19 07:31:23;;;;;;;14.15;7.80;;;-0.10;99.90;;;;;;5067333;28;20032;-57
2021/01/19 07:33:54;;;;;;;16.52;7.45;;;-0.10;99.90;;;;;;5066135;28;20033;-57
2021/01/19 07:36:22;;;;;;;13.43;6.70;;;-0.10;99.90;;;;;;5052316;28;20036;-57
2021/01/19 07:38:49;;;;;;;14.85;7.55;;;0.00;99.90;;;;;;5054938;28;20493;-60
2021/01/19 07:41:31;;;;;;;19.92;8.50;;;0.00;99.90;;;;;;5064291;28;20438;-56
2021/01/19 07:43:57;;;;;;;18.52;8.23;;;0.10;99.90;;;;;;5067022;28;20052;-59
2021/01/19 07:46:28;;;;;;;15.07;7.28;;;0.10;99.90;;;;;;5063683;28;20033;-53
2021/01/19 07:49:04;;;;;;;20.70;8.35;;;0.10;99.90;;;;;;5058044;28;20083;-58
2021/01/19 07:51:42;;;;;;;16.35;7.95;;;0.20;99.90;;;;;;5047107;28;20436;-59
2021/01/19 07:54:08;;;;;;;24.95;8.43;;;0.20;99.90;;;;;;5068263;28;20028;-55
2021/01/19 07:56:34;;;;;;;14.50;7.28;;;0.20;99.90;;;;;;5066980;28;21232;-57
2021/01/19 07:59:00;;;;;;;16.35;8.30;;;0.30;99.90;;;;;;5064640;28;20238;-56
2021/01/19 08:01:28;;;;;;;15.80;9.15;;;0.30;99.90;;;;;;5068236;28;20109;-58
2021/01/19 08:03:55;;;;;;;15.23;8.23;;;0.30;99.90;;;;;;5067376;28;20032;-60
2021/01/19 08:06:31;;;;;;;22.15;9.43;;;0.40;99.90;;;;;;5065316;28;20123;-52
2021/01/19 08:09:20;;;;;;;17.77;9.75;;;0.30;99.90;;;;;;5048178;28;20051;-54
2021/01/19 08:12:07;;;;;;;17.00;8.68;;;0.30;99.90;;;;;;5053616;28;20078;-54
2021/01/19 08:14:43;;;;;;;15.27;7.75;;;0.30;99.90;;;;;;5062722;28;20124;-57
2021/01/19 08:17:14;;;;;;;14.65;7.57;;;0.40;99.90;;;;;;5062717;28;20219;-56
2021/01/19 08:19:44;;;;;;;17.02;8.40;;;0.50;99.90;;;;;;5069126;28;20487;-55
2021/01/19 08:22:11;;;;;;;18.27;7.80;;;0.50;99.90;;;;;;5071037;28;20021;-54
2021/01/19 08:24:41;;;;;;;16.95;7.72;;;0.60;99.90;;;;;;5069672;28;20431;-53
2021/01/19 08:27:07;;;;;;;15.02;8.05;;;0.60;99.90;;;;;;5070621;28;20039;-57
2021/01/19 08:29:32;;;;;;;18.67;8.50;;;0.70;99.90;;;;;;5070549;28;20123;-54
2021/01/19 08:32:00;;;;;;;20.35;10.65;;;0.80;99.90;;;;;;5071886;28;20503;-56
2021/01/19 08:34:28;;;;;;;22.83;11.13;;;0.90;99.90;;;;;;5070636;28;20044;-56
2021/01/19 08:36:56;;;;;;;27.27;13.60;;;0.90;99.90;;;;;;5060524;28;20040;-57
2021/01/19 08:39:22;;;;;;;24.25;11.68;;;0.90;99.90;;;;;;5071694;28;20039;-54
2021/01/19 08:41:50;;;;;;;19.92;9.98;;;1.00;99.90;;;;;;5066803;28;20087;-56
2021/01/19 08:44:17;;;;;;;18.00;8.93;;;1.10;99.90;;;;;;5058462;28;20073;-55
2021/01/19 08:46:43;;;;;;;14.48;8.00;;;1.10;99.90;;;;;;5070490;28;20032;-56
2021/01/19 08:49:10;;;;;;;17.05;7.50;;;1.10;99.90;;;;;;5070494;28;20036;-56
2021/01/19 08:51:37;;;;;;;21.98;9.05;;;1.10;99.90;;;;;;5071314;28;20054;-57
2021/01/19 08:54:08;;;;;;;17.85;9.02;;;1.20;99.90;;;;;;5070306;28;20127;-58
2021/01/19 08:56:41;;;;;;;17.42;8.75;;;1.20;99.90;;;;;;5071294;28;20067;-54
2021/01/19 08:59:10;;;;;;;15.80;7.65;;;1.20;99.90;;;;;;5069678;28;20514;-54
2021/01/19 09:01:50;;;;;;;19.23;7.55;;;1.20;99.90;;;;;;5071645;28;20449;-56
2021/01/19 09:04:28;;;;;;;18.67;8.60;;;1.30;99.90;;;;;;5070650;28;20032;-55
2021/01/19 09:07:05;;;;;;;15.15;8.02;;;1.40;99.90;;;;;;5071231;28;20028;-57
2021/01/19 09:09:31;;;;;;;19.13;8.48;;;1.40;99.90;;;;;;5053968;28;20526;-53
2021/01/19 09:11:56;;;;;;;19.10;8.40;;;1.50;99.90;;;;;;5056163;28;20029;-52
2021/01/19 09:14:26;;;;;;;16.33;8.88;;;1.50;99.90;;;;;;5060172;28;20033;-57
2021/01/19 09:16:53;;;;;;;18.02;8.50;;;1.60;99.90;;;;;;5071249;28;20118;-57
2021/01/19 09:19:20;;;;;;;19.95;10.30;;;1.70;99.90;;;;;;5069307;28;20090;-56
2021/01/19 09:21:46;;;;;;;18.70;9.07;;;1.80;99.90;;;;;;5052890;28;20568;-55
2021/01/19 09:24:13;;;;;;;17.70;9.02;;;1.80;99.90;;;;;;5067499;28;20119;-55
2021/01/19 09:26:56;;;;;;;18.67;9.18;;;1.90;99.90;;;;;;5066722;28;20033;-58
2021/01/19 09:29:33;;;;;;;16.85;9.00;;;2.00;99.90;;;;;;5050478;28;20102;-58
2021/01/19 09:32:00;;;;;;;16.30;7.90;;;2.00;99.90;;;;;;5053172;28;20067;-56
2021/01/19 09:34:27;;;;;;;15.60;7.75;;;2.00;99.90;;;;;;5062488;28;20068;-56
2021/01/19 09:36:54;;;;;;;15.20;8.43;;;2.10;99.90;;;;;;5064111;28;20056;-54
2021/01/19 09:39:28;;;;;;;16.30;8.23;;;2.10;99.90;;;;;;5067598;28;20032;-56
2021/01/19 09:41:56;;;;;;;16.40;8.30;;;2.10;99.90;;;;;;5064012;28;20042;-53
2021/01/19 09:44:23;;;;;;;15.40;7.70;;;2.20;99.90;;;;;;5068130;28;20036;-55
2021/01/19 09:46:54;;;;;;;22.73;9.73;;;2.20;99.90;;;;;;5068019;28;20064;-56
2021/01/19 09:49:22;;;;;;;14.88;7.75;;;2.20;99.90;;;;;;5069339;28;20423;-56
2021/01/19 09:51:48;;;;;;;14.77;8.02;;;2.20;99.90;;;;;;5056231;28;20043;-53
2021/01/19 09:54:22;;;;;;;17.25;8.63;;;2.30;99.90;;;;;;5070216;28;20055;-55
2021/01/19 09:56:57;;;;;;;28.30;10.38;;;2.40;99.90;;;;;;5069754;28;20054;-56
2021/01/19 09:59:27;;;;;;;16.55;9.23;;;2.60;99.90;;;;;;5050634;28;20033;-56
2021/01/19 10:01:56;;;;;;;20.55;9.50;;;2.80;99.90;;;;;;5050117;28;20037;-58
2021/01/19 10:04:24;;;;;;;15.32;8.82;;;2.90;99.90;;;;;;5059595;28;20456;-55
2021/01/19 10:07:01;;;;;;;17.55;8.57;;;2.80;99.90;;;;;;5068912;28;20040;-54
2021/01/19 10:09:26;;;;;;;18.17;8.48;;;2.80;99.90;;;;;;5051301;28;20037;-55
2021/01/19 10:12:00;;;;;;;16.30;8.10;;;2.90;99.90;;;;;;5063579;28;20436;-57
2021/01/19 10:14:31;;;;;;;15.20;7.80;;;2.90;99.90;;;;;;5069160;28;20123;-56
2021/01/19 10:16:58;;;;;;;17.13;8.25;;;2.90;99.90;;;;;;5070029;28;20048;-56
2021/01/19 10:19:26;;;;;;;20.35;10.18;;;2.90;99.90;;;;;;5068744;28;20111;-57
2021/01/19 10:21:54;;;;;;;19.60;9.57;;;2.90;99.90;;;;;;5069872;28;20032;-57
2021/01/19 10:24:21;;;;;;;23.30;8.88;;;3.00;99.90;;;;;;5068556;28;20586;-55
2021/01/19 10:27:00;;;;;;;21.23;8.93;;;3.00;99.90;;;;;;5069953;28;20040;-58
2021/01/19 10:29:29;;;;;;;18.02;8.40;;;3.10;99.90;;;;;;5068617;28;20106;-55
2021/01/19 10:31:59;;;;;;;15.00;7.55;;;3.00;99.90;;;;;;5069608;28;20118;-56
2021/01/19 10:34:27;;;;;;;12.88;7.85;;;3.00;99.90;;;;;;5051469;28;20109;-58
2021/01/19 10:36:55;;;;;;;12.15;7.38;;;3.10;99.90;;;;;;5052295;28;20490;-59
2021/01/19 10:39:21;;;;;;;12.50;6.82;;;3.20;99.90;;;;;;5067464;28;20070;-55
2021/01/19 10:41:48;;;;;;;12.70;7.43;;;3.30;99.90;;;;;;5068801;28;20569;-54
2021/01/19 10:44:14;;;;;;;10.52;6.53;;;3.20;99.90;;;;;;5069240;28;20032;-58
2021/01/19 10:46:41;;;;;;;17.17;7.43;;;3.20;99.90;;;;;;5069295;28;20034;-57
2021/01/19 10:49:10;;;;;;;17.02;8.52;;;3.10;99.90;;;;;;5069651;28;20051;-57
2021/01/19 10:51:37;;;;;;;17.42;7.13;;;3.20;99.90;;;;;;5069397;28;20120;-56
2021/01/19 10:54:16;;;;;;;14.05;6.90;;;3.30;99.90;;;;;;5069318;28;20032;-54
2021/01/19 10:56:44;;;;;;;17.55;7.47;;;3.30;99.90;;;;;;5069516;28;20440;-56
2021/01/19 10:59:11;;;;;;;17.88;8.02;;;3.40;99.90;;;;;;5069026;28;20075;-57
2021/01/19 11:01:37;;;;;;;15.40;7.90;;;3.50;99.90;;;;;;5068974;28;20476;-57
2021/01/19 11:04:04;;;;;;;16.88;7.45;;;3.60;99.90;;;;;;5069036;28;20056;-59
2021/01/19 11:06:37;;;;;;;13.40;7.70;;;3.60;99.90;;;;;;5069020;28;20032;-54
2021/01/19 11:09:04;;;;;;;12.57;7.20;;;3.70;99.90;;;;;;5068623;28;20191;-58
2021/01/19 11:11:31;;;;;;;18.10;8.18;;;3.60;99.90;;;;;;5068897;28;20035;-59
2021/01/19 11:14:02;;;;;;;14.73;7.20;;;3.70;99.90;;;;;;5067570;28;20423;-57
2021/01/19 11:16:32;;;;;;;17.17;7.65;;;3.70;99.90;;;;;;5066896;28;20040;-57
2021/01/19 11:19:00;;;;;;;18.05;8.18;;;3.70;99.90;;;;;;5066384;28;20047;-59
2021/01/19 11:21:26;;;;;;;14.85;8.50;;;3.70;99.90;;;;;;5068690;28;20035;-55
2021/01/19 11:23:52;;;;;;;15.40;8.15;;;3.60;99.90;;;;;;5067938;28;20032;-59
2021/01/19 11:26:18;;;;;;;18.00;8.70;;;3.60;99.90;;;;;;5068670;28;20055;-58
2021/01/19 11:28:44;;;;;;;20.98;9.57;;;3.60;99.90;;;;;;5067422;28;20032;-57
2021/01/19 11:31:10;;;;;;;22.95;8.18;;;3.60;99.90;;;;;;5068426;28;20032;-58
2021/01/19 11:33:36;;;;;;;14.50;6.47;;;3.80;99.90;;;;;;5067801;28;20091;-59
2021/01/19 11:36:01;;;;;;;14.52;7.45;;;3.80;99.90;;;;;;5067727;28;20123;-58
2021/01/19 11:38:27;;;;;;;13.82;7.07;;;3.80;99.90;;;;;;5067365;28;20099;-53
2021/01/19 11:40:53;;;;;;;15.02;7.75;;;3.80;99.90;;;;;;5067453;28;20032;-59
2021/01/19 11:43:18;;;;;;;12.70;7.68;;;3.80;99.90;;;;;;5068189;28;20055;-58
2021/01/19 11:45:44;;;;;;;16.70;9.05;;;3.80;99.90;;;;;;5067609;28;20033;-58
2021/01/19 11:48:10;;;;;;;14.82;7.53;;;3.80;99.90;;;;;;5067268;28;20605;-56
2021/01/19 11:50:36;;;;;;;14.65;7.97;;;3.80;99.90;;;;;;5062823;28;20392;-58
2021/01/19 11:53:01;;;;;;;14.52;8.75;;;3.80;99.90;;;;;;5067036;28;20100;-56
2021/01/19 11:55:27;;;;;;;15.10;7.80;;;3.80;99.90;;;;;;5067646;28;20029;-60
2021/01/19 11:57:53;;;;;;;15.63;8.48;;;3.90;99.90;;;;;;5067702;28;20498;-59
2021/01/19 12:00:19;;;;;;;21.98;8.48;;;3.90;99.90;;;;;;5066352;28;20502;-57
2021/01/19 12:02:44;;;;;;;16.10;8.63;;;3.90;99.90;;;;;;5067448;28;20604;-58
2021/01/19 12:05:11;;;;;;;18.67;8.60;;;3.90;99.90;;;;;;5068292;28;20046;-58
2021/01/19 12:07:40;;;;;;;20.38;8.75;;;3.90;99.90;;;;;;5066027;28;20045;-57
2021/01/19 12:10:08;;;;;;;17.92;8.23;;;3.90;99.90;;;;;;5067374;28;20025;-56
2021/01/19 12:12:34;;;;;;;19.05;9.05;;;3.90;99.90;;;;;;5068036;28;20033;-59
2021/01/19 12:15:00;;;;;;;13.73;7.95;;;4.00;99.90;;;;;;5067252;28;20113;-55
2021/01/19 12:17:26;;;;;;;16.48;8.38;;;4.10;99.90;;;;;;5067300;28;20052;-58
2021/01/19 12:19:51;;;;;;;16.23;8.48;;;4.20;99.90;;;;;;5066997;28;20029;-57
2021/01/19 12:22:18;;;;;;;18.30;7.93;;;4.20;99.90;;;;;;5067227;28;20064;-60
2021/01/19 12:24:43;;;;;;;13.57;7.05;;;4.30;99.90;;;;;;5050188;28;20056;-59
2021/01/19 12:27:09;;;;;;;16.10;7.28;;;4.30;99.90;;;;;;5057132;28;20039;-57
2021/01/19 12:29:35;;;;;;;11.77;7.43;;;4.30;99.90;;;;;;5067092;28;20083;-57
2021/01/19 12:32:04;;;;;;;17.33;7.63;;;4.30;99.90;;;;;;5068285;28;20433;-58
2021/01/19 12:34:30;;;;;;;22.05;8.25;;;4.30;99.90;;;;;;5067249;28;20048;-58
2021/01/19 12:36:56;;;;;;;14.75;7.85;;;4.20;99.90;;;;;;5067911;28;20024;-54
2021/01/19 12:39:22;;;;;;;15.65;8.43;;;4.20;99.90;;;;;;5056405;28;20048;-55
2021/01/19 12:41:48;;;;;;;18.02;7.75;;;4.10;99.90;;;;;;5067388;28;20496;-54
2021/01/19 12:44:14;;;;;;;17.63;7.95;;;4.10;99.90;;;;;;5062518;28;20033;-57
2021/01/19 12:46:40;;;;;;;11.65;7.20;;;4.10;99.90;;;;;;5048204;28;20150;-55
2021/01/19 12:49:06;;;;;;;19.80;7.90;;;4.20;99.90;;;;;;5053444;28;20043;-57
2021/01/19 12:51:32;;;;;;;14.85;8.57;;;4.20;99.90;;;;;;5066229;28;20400;-57